createdAt,value
2019-01-25T00:00:23.520Z,-2.70
2019-01-25T00:02:52.068Z,-2.60
2019-01-25T00:05:20.590Z,-2.60
2019-01-25T00:07:49.082Z,-2.60
2019-01-25T00:10:17.619Z,-2.60
2019-01-25T00:12:46.110Z,-2.50
2019-01-25T00:15:15.044Z,-2.40
2019-01-25T00:17:43.565Z,-2.50
2019-01-25T00:20:13.282Z,-2.30
2019-01-25T00:22:41.818Z,-2.40
2019-01-25T00:25:10.616Z,-2.40
2019-01-25T00:27:39.169Z,-2.50
2019-01-25T00:30:10.728Z,-2.40
2019-01-25T00:32:39.185Z,-2.00
2019-01-25T00:35:07.993Z,-2.50
2019-01-25T00:37:36.591Z,-2.50
2019-01-25T00:40:11.094Z,-2.40
2019-01-25T00:42:39.562Z,-2.50
2019-01-25T00:45:10.166Z,-2.60
2019-01-25T00:47:38.764Z,-2.50
2019-01-25T00:50:10.322Z,-2.60
2019-01-25T00:52:38.883Z,-2.50
2019-01-25T00:55:08.706Z,-2.40
2019-01-25T00:57:37.299Z,-2.70
2019-01-25T01:00:20.495Z,-2.20
2019-01-25T01:02:49.484Z,-2.50
2019-01-25T01:05:19.085Z,-2.50
2019-01-25T01:07:47.981Z,-2.70
2019-01-25T01:10:16.751Z,-2.50
2019-01-25T01:12:45.310Z,-2.80
2019-01-25T01:15:14.687Z,-2.50
2019-01-25T01:17:43.393Z,-2.60
2019-01-25T01:20:14.463Z,-2.50
2019-01-25T01:22:42.969Z,-2.70
2019-01-25T01:25:12.355Z,-2.40
2019-01-25T01:27:40.971Z,-2.70
2019-01-25T01:30:12.867Z,-2.80
2019-01-25T01:32:41.335Z,-2.70
2019-01-25T01:35:09.977Z,-3.10
2019-01-25T01:37:38.631Z,-2.70
2019-01-25T01:40:10.241Z,-3.00
2019-01-25T01:42:38.785Z,-2.90
2019-01-25T01:45:08.121Z,-2.40
2019-01-25T01:47:36.734Z,-3.00
2019-01-25T01:50:11.219Z,-3.00
2019-01-25T01:52:39.827Z,-3.00
2019-01-25T01:55:08.456Z,-3.20
2019-01-25T01:57:36.911Z,-3.10
2019-01-25T02:00:11.083Z,-3.10
2019-01-25T02:02:39.689Z,-3.10
2019-01-25T02:05:09.499Z,-3.20
2019-01-25T02:07:38.067Z,-3.30
2019-01-25T02:10:12.291Z,-3.40
2019-01-25T02:12:40.805Z,-3.50
2019-01-25T02:15:11.894Z,-3.60
2019-01-25T02:17:40.507Z,-3.60
2019-01-25T02:20:12.426Z,-3.70
2019-01-25T02:22:41.627Z,-3.70
2019-01-25T02:25:10.331Z,-3.70
2019-01-25T02:27:38.891Z,-3.70
2019-01-25T02:30:10.523Z,-3.60
2019-01-25T02:32:39.091Z,-3.60
2019-01-25T02:35:09.071Z,-3.50
2019-01-25T02:37:37.605Z,-3.50
2019-01-25T02:40:08.975Z,-3.50
2019-01-25T02:42:38.148Z,-3.40
2019-01-25T02:45:09.459Z,-3.40
2019-01-25T02:47:38.562Z,-3.40
2019-01-25T02:50:18.933Z,-3.30
2019-01-25T02:52:47.521Z,-3.20
2019-01-25T02:55:16.864Z,-3.10
2019-01-25T02:57:45.645Z,-3.00
2019-01-25T03:00:16.783Z,-3.00
2019-01-25T03:02:45.434Z,-3.00
2019-01-25T03:05:15.838Z,-3.00
2019-01-25T03:07:44.327Z,-3.00
2019-01-25T03:10:15.731Z,-3.00
2019-01-25T03:12:44.429Z,-3.00
2019-01-25T03:15:21.324Z,-3.00
2019-01-25T03:17:49.941Z,-3.00
2019-01-25T03:20:19.048Z,-3.00
2019-01-25T03:22:48.899Z,-3.10
2019-01-25T03:25:20.044Z,-3.00
2019-01-25T03:27:48.721Z,-3.00
2019-01-25T03:30:22.607Z,-3.00
2019-01-25T03:32:51.221Z,-3.00
2019-01-25T03:35:22.031Z,-3.00
2019-01-25T03:37:50.813Z,-3.10
2019-01-25T03:40:26.768Z,-3.10
2019-01-25T03:42:55.503Z,-3.00
2019-01-25T03:45:24.599Z,-3.10
2019-01-25T03:47:53.303Z,-3.10
2019-01-25T03:50:24.579Z,-3.10
2019-01-25T03:52:53.443Z,-3.10
2019-01-25T03:55:22.168Z,-3.00
2019-01-25T03:57:50.728Z,-3.10
2019-01-25T04:00:27.014Z,-3.10
2019-01-25T04:02:55.611Z,-3.10
2019-01-25T04:05:24.297Z,-3.10
2019-01-25T04:07:52.914Z,-3.10
2019-01-25T04:10:26.252Z,-3.20
2019-01-25T04:12:54.866Z,-3.20
2019-01-25T04:15:25.701Z,-3.30
2019-01-25T04:17:54.315Z,-3.30
2019-01-25T04:20:23.848Z,-3.30
2019-01-25T04:22:52.521Z,-3.30
2019-01-25T04:25:22.397Z,-3.40
2019-01-25T04:27:51.258Z,-3.50
2019-01-25T04:30:21.956Z,-3.40
2019-01-25T04:32:50.760Z,-3.50
2019-01-25T04:35:19.418Z,-3.50
2019-01-25T04:37:48.579Z,-3.50
2019-01-25T04:40:20.181Z,-3.50
2019-01-25T04:42:48.784Z,-3.50
2019-01-25T04:45:21.787Z,-3.40
2019-01-25T04:47:50.568Z,-3.40
2019-01-25T04:50:20.995Z,-3.50
2019-01-25T04:52:49.703Z,-3.50
2019-01-25T04:55:26.368Z,-3.50
2019-01-25T04:57:58.156Z,-3.50
2019-01-25T05:00:26.826Z,-3.60
2019-01-25T05:02:57.865Z,-3.60
2019-01-25T05:05:27.280Z,-3.60
2019-01-25T05:08:16.393Z,-3.60
2019-01-25T05:10:44.902Z,-3.60
2019-01-25T05:13:13.485Z,-3.60
2019-01-25T05:15:41.943Z,-3.60
2019-01-25T05:18:10.571Z,-3.60
2019-01-25T05:20:39.369Z,-3.50
2019-01-25T05:23:08.702Z,-3.40
2019-01-25T05:25:37.390Z,-3.50
2019-01-25T05:28:16.319Z,-3.50
2019-01-25T05:30:58.650Z,-3.50
2019-01-25T05:33:27.359Z,-3.40
2019-01-25T05:35:55.961Z,-3.50
2019-01-25T05:38:24.612Z,-3.50
2019-01-25T05:40:53.073Z,-3.40
2019-01-25T05:43:21.627Z,-3.60
2019-01-25T05:45:50.092Z,-3.60
2019-01-25T05:48:18.577Z,-3.60
2019-01-25T05:50:47.038Z,-3.70
2019-01-25T05:53:15.608Z,-3.70
2019-01-25T05:55:44.099Z,-3.70
2019-01-25T05:58:12.619Z,-3.70
2019-01-25T06:00:42.715Z,-3.70
2019-01-25T06:03:15.565Z,-3.60
2019-01-25T06:05:44.743Z,-3.60
2019-01-25T06:08:31.762Z,-3.50
2019-01-25T06:11:01.818Z,-3.50
2019-01-25T06:13:30.537Z,-3.50
2019-01-25T06:15:58.987Z,-3.60
2019-01-25T06:18:27.537Z,-3.50
2019-01-25T06:20:57.872Z,-3.50
2019-01-25T06:23:26.433Z,-3.50
2019-01-25T06:25:56.667Z,-3.40
2019-01-25T06:28:25.309Z,-3.40
2019-01-25T06:30:53.937Z,-3.40
2019-01-25T06:33:22.805Z,-3.40
2019-01-25T06:35:51.407Z,-3.50
2019-01-25T06:38:19.986Z,-3.40
2019-01-25T06:40:48.509Z,-3.40
2019-01-25T06:43:17.009Z,-3.30
2019-01-25T06:45:45.614Z,-3.30
2019-01-25T06:48:14.143Z,-3.30
2019-01-25T06:50:42.713Z,-3.30
2019-01-25T06:53:11.162Z,-3.20
2019-01-25T06:55:39.664Z,-3.20
2019-01-25T06:58:09.828Z,-3.20
2019-01-25T07:00:45.677Z,-3.20
2019-01-25T07:03:14.296Z,-3.20
2019-01-25T07:05:42.756Z,-3.10
2019-01-25T07:08:12.848Z,-3.20
2019-01-25T07:10:41.350Z,-3.20
2019-01-25T07:13:09.810Z,-3.20
2019-01-25T07:15:38.278Z,-3.20
2019-01-25T07:18:06.771Z,-3.10
2019-01-25T07:20:35.220Z,-3.10
2019-01-25T07:23:04.010Z,-3.10
2019-01-25T07:25:32.626Z,-3.10
2019-01-25T07:28:01.426Z,-3.10
2019-01-25T07:30:30.016Z,-3.10
2019-01-25T07:32:58.569Z,-3.00
2019-01-25T07:35:27.181Z,-3.10
2019-01-25T07:37:55.829Z,-3.10
2019-01-25T07:40:24.386Z,-3.10
2019-01-25T07:42:52.889Z,-3.10
2019-01-25T07:45:21.480Z,-3.00
2019-01-25T07:47:50.029Z,-3.00
2019-01-25T07:50:18.507Z,-2.90
2019-01-25T07:52:47.053Z,-2.80
2019-01-25T07:55:15.715Z,-2.80
2019-01-25T07:57:44.257Z,-2.70
2019-01-25T08:00:15.031Z,-2.70
2019-01-25T08:02:43.711Z,-2.60
2019-01-25T08:05:12.565Z,-2.60
2019-01-25T08:07:41.503Z,-2.70
2019-01-25T08:10:13.159Z,-2.60
2019-01-25T08:12:41.677Z,-2.60
2019-01-25T08:15:15.697Z,-2.50
2019-01-25T08:17:44.237Z,-2.50
2019-01-25T08:20:13.798Z,-2.50
2019-01-25T08:22:42.391Z,-2.50
2019-01-25T08:25:11.575Z,-2.40
2019-01-25T08:27:40.149Z,-2.40
2019-01-25T08:30:17.489Z,-2.40
2019-01-25T08:32:46.044Z,-2.30
2019-01-25T08:35:14.935Z,-2.30
2019-01-25T08:37:43.377Z,-2.40
2019-01-25T08:40:14.521Z,-2.40
2019-01-25T08:42:43.139Z,-2.40
2019-01-25T08:45:16.982Z,-2.50
2019-01-25T08:47:45.604Z,-2.40
2019-01-25T08:50:25.930Z,-2.60
2019-01-25T08:52:54.567Z,-2.70
2019-01-25T08:55:23.198Z,-2.50
2019-01-25T08:57:51.946Z,-2.50
2019-01-25T09:00:24.936Z,-2.50
2019-01-25T09:02:53.631Z,-2.50
2019-01-25T09:05:22.641Z,-2.50
2019-01-25T09:07:51.121Z,-2.50
2019-01-25T09:10:24.560Z,-2.40
2019-01-25T09:12:53.031Z,-2.30
2019-01-25T09:15:26.811Z,-2.30
2019-01-25T09:17:55.437Z,-2.20
2019-01-25T09:20:24.052Z,-2.20
2019-01-25T09:22:52.714Z,-2.10
2019-01-25T09:25:21.210Z,-2.20
2019-01-25T09:27:49.928Z,-2.10
2019-01-25T09:30:21.247Z,-2.00
2019-01-25T09:32:49.774Z,-1.90
2019-01-25T09:35:18.855Z,-1.90
2019-01-25T09:37:47.921Z,-1.80
2019-01-25T09:40:19.269Z,-1.80
2019-01-25T09:42:47.718Z,-1.70
2019-01-25T09:45:16.442Z,-1.80
2019-01-25T09:47:45.089Z,-1.70
2019-01-25T09:50:16.496Z,-1.70
2019-01-25T09:52:45.449Z,-1.60
2019-01-25T09:55:16.267Z,-1.60
2019-01-25T09:57:44.859Z,-1.60
2019-01-25T10:00:21.945Z,-1.60
2019-01-25T10:02:50.449Z,-1.70
2019-01-25T10:05:18.898Z,-1.80
2019-01-25T10:07:47.451Z,-1.90
2019-01-25T10:10:15.969Z,-1.90
2019-01-25T10:12:44.487Z,-2.00
2019-01-25T10:15:22.084Z,-2.00
2019-01-25T10:17:50.707Z,-2.10
2019-01-25T10:20:19.821Z,-2.30
2019-01-25T10:22:48.596Z,-2.30
2019-01-25T10:25:17.116Z,-2.20
2019-01-25T10:27:47.172Z,-2.30
2019-01-25T10:30:28.799Z,-2.30
2019-01-25T10:32:57.287Z,-2.30
2019-01-25T10:35:25.854Z,-2.20
2019-01-25T10:37:54.404Z,-2.20
2019-01-25T10:40:24.575Z,-2.20
2019-01-25T10:42:53.861Z,-2.20
2019-01-25T10:45:25.452Z,-2.10
2019-01-25T10:47:54.598Z,-2.20
2019-01-25T10:50:23.124Z,-2.20
2019-01-25T10:52:51.737Z,-2.10
2019-01-25T10:55:20.332Z,-2.00
2019-01-25T10:57:48.905Z,-1.90
2019-01-25T11:00:19.684Z,-1.90
2019-01-25T11:02:48.138Z,-2.10
2019-01-25T11:05:21.604Z,-2.00
2019-01-25T11:07:51.216Z,-2.00
2019-01-25T11:10:19.727Z,-1.90
2019-01-25T11:12:48.376Z,-1.80
2019-01-25T11:15:19.136Z,-1.70
2019-01-25T11:17:48.553Z,-1.80
2019-01-25T11:20:19.615Z,-1.70
2019-01-25T11:22:48.344Z,-1.70
2019-01-25T11:25:22.572Z,-1.60
2019-01-25T11:27:51.122Z,-1.40
2019-01-25T11:30:19.904Z,-1.20
2019-01-25T11:32:48.418Z,-0.90
2019-01-25T11:35:16.857Z,-1.00
2019-01-25T11:37:45.306Z,-1.00
2019-01-25T11:40:19.648Z,-1.00
2019-01-25T11:42:48.218Z,-0.90
2019-01-25T11:45:16.954Z,-0.80
2019-01-25T11:47:45.620Z,-0.80
2019-01-25T11:50:17.027Z,-0.80
2019-01-25T11:52:45.881Z,-1.10
2019-01-25T11:55:16.216Z,-1.00
2019-01-25T11:57:44.811Z,-0.90
2019-01-25T12:00:18.998Z,-0.80
2019-01-25T12:02:47.515Z,-0.80
2019-01-25T12:05:18.796Z,-0.80
2019-01-25T12:07:47.565Z,-0.80
2019-01-25T12:10:21.421Z,-0.80
2019-01-25T12:12:49.922Z,-0.80
2019-01-25T12:15:18.484Z,-0.90
2019-01-25T12:17:46.932Z,-1.00
2019-01-25T12:20:20.768Z,-1.00
2019-01-25T12:22:49.329Z,-1.00
2019-01-25T12:25:17.917Z,-1.00
2019-01-25T12:27:46.470Z,-1.00
2019-01-25T12:30:29.851Z,-1.10
2019-01-25T12:32:58.543Z,-1.10
2019-01-25T12:35:29.341Z,-1.10
2019-01-25T12:37:57.847Z,-1.20
2019-01-25T12:40:26.427Z,-1.20
2019-01-25T12:42:54.917Z,-1.10
2019-01-25T12:45:25.919Z,-1.20
2019-01-25T12:47:54.613Z,-1.30
2019-01-25T12:50:34.943Z,-1.50
2019-01-25T12:53:05.767Z,-1.50
2019-01-25T12:55:34.329Z,-1.70
2019-01-25T12:58:02.833Z,-1.80
2019-01-25T13:00:31.389Z,-1.80
2019-01-25T13:03:00.010Z,-1.90
2019-01-25T13:05:28.832Z,-1.90
2019-01-25T13:07:57.369Z,-2.00
2019-01-25T13:10:27.150Z,-1.90
2019-01-25T13:12:55.880Z,-1.90
2019-01-25T13:15:24.638Z,-2.00
2019-01-25T13:17:53.269Z,-2.20
2019-01-25T13:20:31.562Z,-2.60
2019-01-25T13:23:00.086Z,-2.90
2019-01-25T13:25:28.624Z,-3.00
2019-01-25T13:27:57.277Z,-3.10
2019-01-25T13:30:28.380Z,-3.00
2019-01-25T13:32:57.248Z,-2.90
2019-01-25T13:35:25.878Z,-2.80
2019-01-25T13:37:54.508Z,-2.70
2019-01-25T13:40:24.833Z,-2.60
2019-01-25T13:42:53.474Z,-2.50
2019-01-25T13:45:23.109Z,-2.40
2019-01-25T13:47:52.503Z,-2.30
2019-01-25T13:50:23.582Z,-2.20
2019-01-25T13:52:52.276Z,-2.20
2019-01-25T13:55:21.071Z,-2.10
2019-01-25T13:57:49.626Z,-2.00
2019-01-25T14:00:29.705Z,-2.00
2019-01-25T14:02:58.287Z,-1.90
2019-01-25T14:05:27.006Z,-1.90
2019-01-25T14:07:55.634Z,-1.80
2019-01-25T14:10:30.058Z,-1.80
2019-01-25T14:12:58.698Z,-1.70
2019-01-25T14:15:27.556Z,-1.80
2019-01-25T14:17:56.185Z,-1.80
2019-01-25T14:20:27.258Z,-1.80
2019-01-25T14:22:55.845Z,-1.80
2019-01-25T14:25:24.652Z,-1.90
2019-01-25T14:27:53.406Z,-2.10
2019-01-25T14:30:34.155Z,-2.20
2019-01-25T14:33:02.966Z,-2.20
2019-01-25T14:35:31.900Z,-2.20
2019-01-25T14:38:00.689Z,-2.20
2019-01-25T14:40:29.523Z,-2.20
2019-01-25T14:42:58.282Z,-2.20
2019-01-25T14:45:27.307Z,-2.20
2019-01-25T14:47:55.926Z,-2.40
2019-01-25T14:50:27.047Z,-2.50
2019-01-25T14:52:55.659Z,-2.60
2019-01-25T14:55:24.519Z,-2.70
2019-01-25T14:57:53.330Z,-2.80
2019-01-25T15:00:23.087Z,-2.90
2019-01-25T15:02:51.819Z,-3.00
2019-01-25T15:05:20.865Z,-3.00
2019-01-25T15:07:49.663Z,-3.10
2019-01-25T15:10:20.538Z,-3.00
2019-01-25T15:12:52.506Z,-2.90
2019-01-25T15:15:21.213Z,-2.90
2019-01-25T15:17:49.953Z,-2.80
2019-01-25T15:20:21.417Z,-2.70
2019-01-25T15:22:50.197Z,-2.60
2019-01-25T15:25:18.837Z,-2.60
2019-01-25T15:27:47.630Z,-2.60
2019-01-25T15:30:19.301Z,-2.60
2019-01-25T15:32:50.791Z,-2.80
2019-01-25T15:35:21.125Z,-2.90
2019-01-25T15:37:49.928Z,-2.90
2019-01-25T15:40:20.316Z,-3.00
2019-01-25T15:42:49.219Z,-2.90
2019-01-25T15:45:19.370Z,-2.80
2019-01-25T15:47:48.015Z,-2.80
2019-01-25T15:50:20.889Z,-2.80
2019-01-25T15:52:49.586Z,-3.00
2019-01-25T15:55:18.695Z,-2.90
2019-01-25T15:57:47.567Z,-2.80
2019-01-25T16:11:32.757Z,-2.90
2019-01-25T16:14:01.249Z,-3.20
2019-01-25T16:22:14.735Z,-3.00
2019-01-25T16:24:43.450Z,-2.60
2019-01-25T16:27:12.167Z,-3.20
2019-01-25T16:29:40.774Z,-2.90
2019-01-25T16:32:09.399Z,-2.80
2019-01-25T16:34:38.023Z,-3.10
2019-01-25T16:37:06.583Z,-3.00
2019-01-25T16:44:34.273Z,-2.90
2019-01-25T16:47:02.827Z,-3.20
2019-01-25T16:49:31.569Z,-3.10
2019-01-25T16:52:01.871Z,-3.40
2019-01-25T16:54:31.217Z,-3.30
2019-01-25T16:56:59.990Z,-3.30
2019-01-25T16:59:29.174Z,-2.70
2019-01-25T17:04:26.277Z,-3.40
2019-01-25T17:06:55.194Z,-3.80
2019-01-25T17:09:23.974Z,-3.80
2019-01-25T17:11:52.942Z,-3.60
2019-01-25T17:14:23.639Z,-3.70
2019-01-25T17:16:54.090Z,-3.70
2019-01-25T17:19:24.536Z,-3.60
2019-01-25T17:24:21.822Z,-3.30
2019-01-25T17:26:50.776Z,-3.90
2019-01-25T17:31:47.978Z,-4.10
2019-01-25T17:34:16.615Z,-4.00
2019-01-25T17:36:45.269Z,-3.90
2019-01-25T17:39:15.133Z,-3.80
2019-01-25T17:41:43.803Z,-3.60
2019-01-25T17:44:12.810Z,-3.20
2019-01-25T17:49:10.468Z,-3.50
2019-01-25T17:51:38.999Z,-3.80
2019-01-25T17:54:08.017Z,-3.30
2019-01-25T17:56:37.628Z,-3.40
2019-01-25T17:59:06.200Z,-3.30
2019-01-25T18:01:34.671Z,-3.40
2019-01-25T18:04:03.922Z,-3.30
2019-01-25T18:06:32.605Z,-3.20
2019-01-25T18:09:01.180Z,-3.20
2019-01-25T18:11:29.840Z,-3.20
2019-01-25T18:13:58.500Z,-3.20
2019-01-25T18:16:28.186Z,-3.10
2019-01-25T18:18:57.235Z,-2.90
2019-01-25T18:21:26.942Z,-3.20
2019-01-25T18:26:25.590Z,-2.90
2019-01-25T18:28:56.055Z,-3.40
2019-01-25T18:31:26.736Z,-3.00
2019-01-25T18:33:55.329Z,-2.90
2019-01-25T18:36:23.960Z,-2.90
2019-01-25T18:38:52.810Z,-2.70
2019-01-25T18:41:21.447Z,-2.10
2019-01-25T18:43:50.196Z,-2.60
2019-01-25T18:46:19.390Z,-2.80
2019-01-25T18:48:48.051Z,-3.00
2019-01-25T18:51:17.986Z,-3.10
2019-01-25T18:53:46.623Z,-2.80
2019-01-25T18:56:17.074Z,-2.80
2019-01-25T18:58:45.747Z,-3.20
2019-01-25T19:01:14.547Z,-3.20
2019-01-25T19:03:43.265Z,-2.80
2019-01-25T19:11:16.212Z,-3.00
2019-01-25T19:13:46.589Z,-2.90
2019-01-25T19:18:48.482Z,-2.70
2019-01-25T19:21:17.112Z,-2.80
2019-01-25T19:23:47.831Z,-2.70
2019-01-25T19:26:19.511Z,-2.60
2019-01-25T19:28:49.513Z,-3.00
2019-01-25T19:31:19.028Z,-2.80
2019-01-25T19:33:47.677Z,-2.70
2019-01-25T19:36:18.079Z,-2.90
2019-01-25T19:38:46.819Z,-2.60
2019-01-25T19:41:16.168Z,-2.80
2019-01-25T19:43:46.344Z,-2.80
2019-01-25T19:46:18.150Z,-2.80
2019-01-25T19:48:48.224Z,-2.70
2019-01-25T19:56:15.782Z,-2.90
2019-01-25T20:01:15.345Z,-2.80
2019-01-25T20:03:45.081Z,-2.80
2019-01-25T20:06:16.587Z,-2.90
2019-01-25T20:08:45.309Z,-3.20
2019-01-25T20:11:14.345Z,-3.20
2019-01-25T20:13:45.242Z,-3.40
2019-01-25T20:16:15.175Z,-3.40
2019-01-25T20:18:45.775Z,-3.60
2019-01-25T20:21:14.588Z,-2.90
2019-01-25T20:26:26.708Z,-3.70
2019-01-25T20:28:55.279Z,-4.00
2019-01-25T20:34:02.988Z,-4.20
2019-01-25T20:36:32.495Z,-3.90
2019-01-25T20:39:01.099Z,-4.00
2019-01-25T20:41:29.767Z,-4.30
2019-01-25T20:43:58.359Z,-4.30
2019-01-25T20:46:28.505Z,-4.20
2019-01-25T20:48:57.111Z,-4.70
2019-01-25T20:51:25.794Z,-4.20
2019-01-25T20:53:59.093Z,-4.30
2019-01-25T20:56:29.792Z,-4.30
2019-01-25T20:58:58.486Z,-4.40
2019-01-25T21:01:31.026Z,-4.50
2019-01-25T21:03:59.689Z,-4.50
2019-01-25T21:08:58.976Z,-4.70
2019-01-25T21:11:28.386Z,-4.30
2019-01-25T21:14:01.852Z,-4.50
2019-01-25T21:16:27.768Z,-4.70
2019-01-25T21:18:57.868Z,-4.70
2019-01-25T21:21:29.642Z,-4.70
2019-01-25T21:23:59.838Z,-4.60
2019-01-25T21:26:29.947Z,-4.60
2019-01-25T21:28:59.434Z,-4.70
2019-01-25T21:31:28.022Z,-4.70
2019-01-25T21:33:56.752Z,-4.70
2019-01-25T21:36:25.366Z,-4.70
2019-01-25T21:38:56.859Z,-4.80
2019-01-25T21:41:25.495Z,-4.80
2019-01-25T21:43:55.674Z,-4.80
2019-01-25T21:46:24.547Z,-5.10
2019-01-25T21:48:53.964Z,-5.00
2019-01-25T21:51:23.415Z,-4.90
2019-01-25T21:53:52.339Z,-4.90
2019-01-25T21:56:22.142Z,-4.90
2019-01-25T21:58:50.948Z,-4.80
2019-01-25T22:01:19.877Z,-4.70
2019-01-25T22:03:48.434Z,-4.80
2019-01-25T22:06:17.275Z,-4.80
2019-01-25T22:08:45.934Z,-4.00
2019-01-25T22:11:15.954Z,-4.40
2019-01-25T22:13:52.646Z,-4.50
2019-01-25T22:16:15.788Z,-4.40
2019-01-25T22:18:44.238Z,-4.40
2019-01-25T22:21:12.730Z,-3.80
2019-01-25T22:23:41.448Z,-4.30
2019-01-25T22:28:38.511Z,-4.40
2019-01-25T22:31:07.158Z,-4.30
2019-01-25T22:33:35.769Z,-4.40
2019-01-25T22:36:04.467Z,-4.10
2019-01-25T22:38:32.984Z,-4.40
2019-01-25T22:41:01.547Z,-4.50
2019-01-25T22:43:30.107Z,-4.20
2019-01-25T22:45:59.058Z,-4.10
2019-01-25T22:48:27.629Z,-4.30
2019-01-25T22:50:56.196Z,-4.10
2019-01-25T22:53:24.765Z,-4.10
2019-01-25T22:55:53.401Z,-3.30
2019-01-25T22:58:22.018Z,-3.90
2019-01-25T23:00:57.999Z,-3.80
2019-01-25T23:03:38.285Z,-3.90
2019-01-25T23:06:27.638Z,-3.90
2019-01-25T23:08:59.308Z,-3.90
2019-01-25T23:11:27.816Z,-4.00
2019-01-25T23:13:56.292Z,-4.10
2019-01-25T23:16:24.891Z,-3.80
2019-01-25T23:18:53.364Z,-3.90
2019-01-25T23:21:21.926Z,-3.90
2019-01-25T23:23:50.385Z,-3.90
2019-01-25T23:26:18.835Z,-4.00
2019-01-25T23:28:47.320Z,-4.00
2019-01-25T23:31:15.807Z,-3.90
